Time;durP1;ratioP1;P1;durP2;ratioP2;P2;SDS_P1;SDS_P2;PMS_P1;PMS_P2;Temp;Humidity;BMP_temperature;BMP_pressure;BME280_temperature;BME280_humidity;BME280_pressure;Samples;Min_cycle;Max_cycle;Signal;HPM_P1;HPM_P2
2022/11/26 00:00:30;;;;;;;;;7.75;5.25;;;;;20.37;41.60;102281.97;5036163;28;45378;-44
2022/11/26 00:02:55;;;;;;;;;7.00;6.25;;;;;20.45;41.93;102294.88;5035888;28;45415;-45
2022/11/26 00:05:22;;;;;;;;;7.50;6.00;;;;;20.45;41.68;102297.53;5036229;28;45748;-46
2022/11/26 00:07:56;;;;;;;;;8.25;6.00;;;;;20.35;41.65;102291.66;5036135;28;45927;-43
2022/11/26 00:10:25;;;;;;;;;6.25;6.25;;;;;20.44;41.76;102306.31;5017887;28;45439;-47
2022/11/26 00:12:50;;;;;;;;;6.50;6.50;;;;;20.43;41.84;102307.22;5035839;28;45760;-49
2022/11/26 00:15:43;;;;;;;;;7.00;5.25;;;;;20.43;41.60;102314.28;5036441;28;45283;-46
2022/11/26 00:18:08;;;;;;;;;8.00;6.50;;;;;20.43;41.90;102314.28;5032359;28;45529;-45
2022/11/26 00:20:33;;;;;;;;;7.00;5.00;;;;;20.41;41.94;102316.94;5035663;28;46508;-49
2022/11/26 00:23:02;;;;;;;;;6.50;5.25;;;;;20.41;42.10;102322.22;5035538;28;45283;-45
2022/11/26 00:25:40;;;;;;;;;9.00;8.00;;;;;20.41;42.12;102327.47;5035052;28;45246;-43
2022/11/26 00:28:25;;;;;;;;;2.00;2.00;;;;;20.40;42.18;102328.38;5035862;28;45307;-45
2022/11/26 00:30:52;;;;;;;;;6.25;6.25;;;;;20.39;41.71;102330.19;5035630;28;45560;-44
2022/11/26 00:33:17;;;;;;;;;6.00;6.00;;;;;20.38;41.69;102327.59;5035728;28;45765;-44
2022/11/26 00:35:45;;;;;;;;;5.25;5.00;;;;;20.37;42.08;102332.00;5036112;28;45377;-45
2022/11/26 00:38:17;;;;;;;;;6.50;5.00;;;;;20.36;42.12;102330.25;5035727;28;45387;-44
2022/11/26 00:40:43;;;;;;;;;5.75;5.00;;;;;20.36;42.28;102322.38;5035775;28;46350;-47
2022/11/26 00:43:10;;;;;;;;;5.00;5.00;;;;;20.36;41.93;102319.72;5035537;28;45320;-45
2022/11/26 00:45:36;;;;;;;;;5.25;4.25;;;;;20.24;41.60;102307.81;5035661;28;45406;-44
2022/11/26 00:48:02;;;;;;;;;6.25;6.25;;;;;20.33;41.59;102325.13;5035634;28;45403;-43
2022/11/26 00:50:35;;;;;;;;;6.25;6.00;;;;;20.33;42.22;102330.38;5035638;28;46263;-47
2022/11/26 00:53:01;;;;;;;;;5.25;5.00;;;;;20.32;41.93;102327.78;5035316;28;45813;-45
2022/11/26 00:55:38;;;;;;;;;4.75;4.75;;;;;20.32;42.07;102333.03;5035637;28;45371;-44
2022/11/26 00:58:05;;;;;;;;;8.50;6.00;;;;;20.21;41.93;102309.69;5035169;28;45578;-45
2022/11/26 01:00:33;;;;;;;;;5.25;4.50;;;;;20.30;41.74;102325.19;5035325;28;46771;-44
2022/11/26 01:02:58;;;;;;;;;6.50;6.00;;;;;20.29;41.75;102327.84;5016895;28;45392;-43
2022/11/26 01:05:25;;;;;;;;;9.00;6.50;;;;;20.19;41.90;102322.88;5035354;28;45496;-44
2022/11/26 01:07:52;;;;;;;;;6.50;6.50;;;;;20.28;42.06;102334.91;5035229;28;45300;-47
2022/11/26 01:10:23;;;;;;;;;7.75;5.25;;;;;20.18;42.35;102321.16;5035202;28;46385;-43
2022/11/26 01:12:50;;;;;;;;;7.00;6.00;;;;;20.27;42.06;102340.22;5034851;28;45368;-44
2022/11/26 01:15:17;;;;;;;;;6.50;5.50;;;;;20.27;41.84;102343.72;5035766;28;45544;-46
2022/11/26 01:17:43;;;;;;;;;5.00;5.00;;;;;20.26;41.77;102335.88;5036011;28;45299;-50
2022/11/26 01:20:27;;;;;;;;;6.50;5.50;;;;;20.17;42.10;102324.72;5034906;28;46268;-45
2022/11/26 01:22:54;;;;;;;;;6.50;6.00;;;;;20.26;41.63;102338.50;5034956;28;45788;-43
2022/11/26 01:25:21;;;;;;;;;9.75;5.75;;;;;20.26;41.89;102349.88;5017446;28;45536;-44
2022/11/26 01:27:46;;;;;;;;;4.50;4.25;;;;;20.19;42.21;102329.94;5035660;28;45679;-44
2022/11/26 01:30:25;;;;;;;;;8.00;5.75;;;;;20.22;42.22;102338.59;5034764;28;47182;-44
2022/11/26 01:32:50;;;;;;;;;6.00;6.00;;;;;20.22;42.32;102343.00;5034823;28;45756;-47
2022/11/26 01:35:17;;;;;;;;;6.00;4.75;;;;;20.22;41.74;102343.00;5036345;28;45292;-45
2022/11/26 01:37:44;;;;;;;;;4.75;4.25;;;;;20.13;41.86;102327.47;5039034;28;45531;-42
2022/11/26 01:40:52;;;;;;;;;8.00;6.75;;;;;20.21;41.85;102336.00;5038175;28;46379;-45
2022/11/26 01:43:40;;;;;;;;;5.50;5.50;;;;;20.20;42.35;102337.78;5038784;28;45966;-45
2022/11/26 01:46:16;;;;;;;;;7.50;5.75;;;;;20.20;42.13;102331.66;5038133;28;45564;-45
2022/11/26 01:48:43;;;;;;;;;4.25;4.25;;;;;20.19;42.22;102332.56;5038417;28;45482;-47
2022/11/26 01:51:11;;;;;;;;;8.25;6.00;;;;;20.18;41.77;102336.09;5038016;28;45463;-49
2022/11/26 01:53:48;;;;;;;;;3.75;3.75;;;;;20.07;41.83;102317.97;5038184;28;45323;-49
2022/11/26 01:56:29;;;;;;;;;6.00;6.00;;;;;20.16;42.29;102332.66;5038442;28;45458;-48
2022/11/26 01:59:20;;;;;;;;;5.75;5.25;;;;;20.05;42.01;102331.19;5038151;28;45372;-44
2022/11/26 02:01:48;;;;;;;;;10.00;6.75;;;;;20.14;41.96;102350.25;5038331;28;46551;-45
2022/11/26 02:04:27;;;;;;;;;9.00;6.00;;;;;20.13;42.26;102346.78;5020368;28;45322;-44
2022/11/26 02:06:54;;;;;;;;;8.25;7.50;;;;;20.13;41.78;102341.50;5037923;28;45438;-42
2022/11/26 02:09:20;;;;;;;;;7.25;6.00;;;;;20.13;42.39;102343.25;5038308;28;45503;-42
2022/11/26 02:11:46;;;;;;;;;6.00;6.00;;;;;20.11;42.20;102337.19;5038232;28;45411;-42
2022/11/26 02:14:25;;;;;;;;;5.75;5.75;;;;;20.12;42.20;102338.94;5037584;28;45347;-44
2022/11/26 02:17:27;;;;;;;;;8.25;6.75;;;;;20.12;42.08;102333.66;5037643;28;45312;-45
2022/11/26 02:20:32;;;;;;;;;7.00;6.25;;;;;20.10;42.28;102332.84;5037887;28;45262;-46
2022/11/26 02:23:12;;;;;;;;;4.25;3.75;;;;;20.09;42.00;102334.59;5017598;28;49095;-49
2022/11/26 02:26:06;;;;;;;;;8.00;5.25;;;;;20.09;41.92;102334.59;5037797;28;45437;-48
2022/11/26 02:28:59;;;;;;;;;6.25;5.00;;;;;20.06;41.75;102332.94;5037843;28;45477;-47
2022/11/26 02:31:51;;;;;;;;;5.50;5.50;;;;;20.06;41.82;102318.91;5037956;28;45327;-46
2022/11/26 02:34:21;;;;;;;;;8.75;6.00;;;;;20.05;41.75;102320.66;5037958;28;46482;-45
2022/11/26 02:36:58;;;;;;;;;8.50;7.00;;;;;20.05;42.23;102320.66;5037713;28;45478;-45
2022/11/26 02:39:25;;;;;;;;;4.25;4.00;;;;;20.04;42.23;102313.69;5037709;28;45407;-46
2022/11/26 02:41:53;;;;;;;;;5.00;5.00;;;;;19.97;42.07;102314.78;5037543;28;45462;-44
2022/11/26 02:44:49;;;;;;;;;7.25;5.25;;;;;20.02;42.34;102326.00;5037222;28;45552;-44
2022/11/26 02:47:18;;;;;;;;;4.50;4.50;;;;;19.92;41.84;102319.28;5036278;28;45987;-48
2022/11/26 02:49:46;;;;;;;;;8.25;6.00;;;;;19.95;42.28;102328.91;5037732;28;45422;-43
2022/11/26 02:52:15;;;;;;;;;5.00;5.00;;;;;20.02;41.98;102347.06;5037330;28;45259;-43
2022/11/26 02:54:42;;;;;;;;;6.25;6.25;;;;;20.01;42.34;102339.22;5019609;28;46374;-45
2022/11/26 02:57:12;;;;;;;;;7.50;6.00;;;;;20.00;42.24;102343.66;5018830;28;45889;-45
2022/11/26 02:59:38;;;;;;;;;9.00;6.00;;;;;19.93;41.95;102327.16;5037373;28;45228;-42
2022/11/26 03:02:10;;;;;;;;;6.00;6.00;;;;;20.03;42.29;102343.53;5037203;28;45238;-44
2022/11/26 03:04:44;;;;;;;;;8.00;7.00;;;;;20.07;42.46;102344.31;5036987;28;46718;-44
2022/11/26 03:07:13;;;;;;;;;6.25;6.00;;;;;20.02;41.91;102331.28;5036806;28;45335;-47
2022/11/26 03:09:48;;;;;;;;;7.25;6.25;;;;;20.15;42.16;102331.78;5037086;28;45232;-45
2022/11/26 03:12:13;;;;;;;;;5.75;5.00;;;;;20.14;42.31;102326.56;5037794;28;45333;-46
2022/11/26 03:14:39;;;;;;;;;11.50;6.75;;;;;20.23;41.97;102335.06;5036848;28;45563;-42
2022/11/26 03:17:04;;;;;;;;;7.00;5.00;;;;;20.30;42.31;102340.13;5036607;28;45437;-48
2022/11/26 03:19:30;;;;;;;;;9.50;6.25;;;;;20.33;42.03;102330.38;5037006;28;45346;-44
2022/11/26 03:21:55;;;;;;;;;7.75;5.50;;;;;20.37;41.66;102331.16;5036827;28;45349;-44
2022/11/26 03:24:20;;;;;;;;;10.00;6.50;;;;;20.33;42.03;102333.00;5018747;28;46721;-43
2022/11/26 03:26:46;;;;;;;;;8.00;6.00;;;;;20.46;42.19;102345.78;5037122;28;45319;-47
2022/11/26 03:29:11;;;;;;;;;7.00;6.00;;;;;20.49;41.96;102336.03;5036309;28;45596;-45
2022/11/26 03:31:36;;;;;;;;;7.75;7.00;;;;;20.53;42.08;102331.53;5036994;28;45633;-42
2022/11/26 03:34:02;;;;;;;;;6.00;6.00;;;;;20.57;41.55;102333.13;5036213;28;45279;-46
2022/11/26 03:36:27;;;;;;;;;7.00;7.00;;;;;20.52;41.38;102324.53;5036588;28;45898;-47
2022/11/26 03:38:52;;;;;;;;;9.25;7.00;;;;;20.54;41.27;102323.56;5036423;28;45413;-46
2022/11/26 03:41:18;;;;;;;;;8.75;6.25;;;;;20.66;41.51;102331.97;5036765;28;45420;-44
2022/11/26 03:43:43;;;;;;;;;8.00;6.33;;;;;20.68;41.86;102331.00;5036381;28;57943;-47
2022/11/26 03:46:08;;;;;;;;;9.00;6.00;;;;;20.72;41.21;102341.47;5036096;28;45531;-43
2022/11/26 03:48:34;;;;;;;;;9.25;6.75;;;;;20.75;41.53;102333.50;5036381;28;45428;-45
2022/11/26 03:50:59;;;;;;;;;6.00;6.00;;;;;20.78;41.52;102341.31;5036079;28;46573;-45
2022/11/26 03:53:24;;;;;;;;;7.75;7.75;;;;;20.80;41.50;102340.34;5036147;28;46361;-45
2022/11/26 03:55:50;;;;;;;;;10.00;7.75;;;;;20.82;41.62;102337.66;5035923;28;45360;-44
2022/11/26 03:58:15;;;;;;;;;8.25;6.00;;;;;20.84;41.35;102344.59;5035894;28;45493;-41
2022/11/26 04:00:40;;;;;;;;;5.50;4.00;;;;;20.87;41.21;102338.38;5035912;28;45610;-43
2022/11/26 04:03:06;;;;;;;;;6.00;6.00;;;;;20.81;41.15;102328.00;5035815;28;46541;-43
2022/11/26 04:05:31;;;;;;;;;8.25;7.75;;;;;20.92;41.09;102348.75;5036066;28;45318;-46
2022/11/26 04:07:56;;;;;;;;;5.75;5.75;;;;;20.84;41.32;102327.94;5035886;28;45420;-46
2022/11/26 04:10:22;;;;;;;;;8.00;4.50;;;;;20.97;41.09;102349.44;5018568;28;45581;-47
2022/11/26 04:12:47;;;;;;;;;8.00;6.25;;;;;20.98;41.14;102349.41;5035873;28;46849;-42
2022/11/26 04:15:13;;;;;;;;;6.00;6.00;;;;;20.98;40.91;102354.69;5036216;28;45726;-46
2022/11/26 04:17:38;;;;;;;;;6.50;6.50;;;;;21.01;41.13;102365.13;5036123;28;45225;-46
2022/11/26 04:20:04;;;;;;;;;7.50;7.00;;;;;21.04;40.94;102371.19;5035639;28;45244;-48
2022/11/26 04:22:32;;;;;;;;;7.50;7.50;;;;;20.96;41.15;102343.34;5035935;28;46162;-46
2022/11/26 04:24:57;;;;;;;;;9.25;6.75;;;;;21.06;41.22;102345.66;5035676;28;46038;-44
2022/11/26 04:27:23;;;;;;;;;9.00;6.00;;;;;21.08;40.93;102349.09;5035886;28;45382;-43
2022/11/26 04:29:48;;;;;;;;;6.25;6.25;;;;;21.08;41.09;102346.47;5035842;28;45422;-43
2022/11/26 04:32:13;;;;;;;;;7.25;7.25;;;;;21.00;40.92;102328.28;5035949;28;45341;-41
2022/11/26 04:34:39;;;;;;;;;5.75;5.75;;;;;21.08;40.87;102336.78;5035938;28;45375;-41
2022/11/26 04:37:04;;;;;;;;;9.75;7.00;;;;;21.07;40.87;102345.59;5035452;28;45312;-42
2022/11/26 04:39:29;;;;;;;;;8.00;8.00;;;;;21.08;40.79;102341.19;5017946;28;45494;-42
2022/11/26 04:41:55;;;;;;;;;9.75;7.00;;;;;21.07;40.86;102342.97;5035308;28;46612;-44
2022/11/26 04:44:20;;;;;;;;;7.25;6.50;;;;;21.00;40.70;102336.19;5035485;28;45354;-44
2022/11/26 04:46:45;;;;;;;;;10.00;7.00;;;;;21.07;41.11;102347.38;5035897;28;45312;-44
2022/11/26 04:49:11;;;;;;;;;8.75;7.00;;;;;20.99;41.01;102343.25;5035441;28;45499;-44
2022/11/26 04:51:36;;;;;;;;;9.25;7.00;;;;;21.06;40.77;102351.78;5035061;28;45394;-41
2022/11/26 04:54:01;;;;;;;;;7.50;7.50;;;;;21.01;40.67;102344.03;5035244;28;45420;-46
2022/11/26 04:56:27;;;;;;;;;7.00;7.00;;;;;21.06;40.90;102350.94;5035570;28;45323;-49
2022/11/26 04:58:52;;;;;;;;;6.50;6.25;;;;;21.05;40.79;102354.47;5035083;28;45676;-46
2022/11/26 05:01:20;;;;;;;;;7.25;6.00;;;;;21.03;40.53;102359.81;5035477;28;45236;-47
2022/11/26 05:03:45;;;;;;;;;6.75;6.75;;;;;20.91;40.99;102342.63;5035501;28;48116;-44
2022/11/26 05:06:11;;;;;;;;;9.75;7.75;;;;;20.98;40.73;102359.97;5035272;28;45415;-41
2022/11/26 05:08:36;;;;;;;;;7.25;7.25;;;;;20.97;40.99;102367.91;5035591;28;45335;-43
2022/11/26 05:11:02;;;;;;;;;9.00;6.00;;;;;20.89;40.77;102359.41;5036949;28;45455;-45
2022/11/26 05:13:27;;;;;;;;;7.50;7.50;;;;;20.95;40.74;102373.22;5038903;28;45425;-43
2022/11/26 05:15:53;;;;;;;;;8.00;8.00;;;;;20.95;40.90;102367.97;5038811;28;45438;-44
2022/11/26 05:18:18;;;;;;;;;9.00;9.00;;;;;20.95;40.92;102370.59;5039085;28;45438;-43
2022/11/26 05:20:43;;;;;;;;;9.25;8.00;;;;;20.94;40.96;102370.66;5039086;28;45447;-42
2022/11/26 05:23:09;;;;;;;;;8.00;7.25;;;;;20.93;40.34;102372.41;5038513;28;49862;-45
2022/11/26 05:25:34;;;;;;;;;5.00;5.00;;;;;20.91;40.75;102379.50;5038819;28;45284;-41
2022/11/26 05:28:00;;;;;;;;;10.75;9.00;;;;;20.82;40.48;102366.63;5038818;28;45264;-46
2022/11/26 05:30:25;;;;;;;;;5.75;4.00;;;;;20.88;40.87;102382.25;5038699;28;46531;-45
2022/11/26 05:32:50;;;;;;;;;8.25;8.00;;;;;20.80;40.32;102371.09;5038488;28;45210;-42
2022/11/26 05:35:16;;;;;;;;;8.25;8.25;;;;;20.86;40.53;102386.72;5038979;28;45284;-46
2022/11/26 05:37:41;;;;;;;;;9.75;8.50;;;;;20.77;40.83;102382.59;5038900;28;45530;-44
2022/11/26 05:40:07;;;;;;;;;9.25;8.75;;;;;20.82;40.61;102385.06;5038217;28;45259;-43
2022/11/26 05:42:33;;;;;;;;;10.25;9.25;;;;;20.79;40.52;102378.16;5038599;28;45225;-44
2022/11/26 05:44:58;;;;;;;;;9.25;8.75;;;;;20.70;40.76;102371.34;5038297;28;45296;-42
2022/11/26 05:47:23;;;;;;;;;7.50;7.50;;;;;20.77;40.72;102389.66;5038593;28;45576;-43
2022/11/26 05:49:48;;;;;;;;;10.00;8.00;;;;;20.74;40.67;102392.34;5037913;28;46830;-43
2022/11/26 05:52:14;;;;;;;;;8.25;8.00;;;;;20.73;40.88;102406.41;5038908;28;45457;-43
2022/11/26 05:54:39;;;;;;;;;11.50;9.00;;;;;20.65;40.71;102394.38;5038338;28;45271;-42
2022/11/26 05:57:04;;;;;;;;;7.50;7.50;;;;;20.70;40.69;102408.25;5038053;28;45547;-44
2022/11/26 05:59:30;;;;;;;;;4.00;0.00;;;;;20.69;40.83;102406.50;5037764;28;57620;-46
2022/11/26 06:01:55;;;;;;;;;12.25;10.00;;;;;20.67;40.70;102413.59;5020253;28;45481;-45
2022/11/26 06:04:23;;;;;;;;;9.50;9.50;;;;;20.58;40.53;102398.06;5020254;28;45320;-43
2022/11/26 06:06:48;;;;;;;;;9.25;8.50;;;;;20.64;40.76;102412.84;5038258;28;45328;-44
2022/11/26 06:09:14;;;;;;;;;6.25;6.25;;;;;20.62;40.92;102407.63;5038245;28;45409;-45
2022/11/26 06:11:39;;;;;;;;;9.00;7.75;;;;;20.60;40.87;102425.25;5038070;28;45352;-45
2022/11/26 06:14:04;;;;;;;;;10.75;9.25;;;;;20.52;40.92;102416.72;5037730;28;45325;-45
2022/11/26 06:16:30;;;;;;;;;11.50;9.75;;;;;20.58;40.62;102439.38;5038121;28;45637;-44
2022/11/26 06:18:55;;;;;;;;;9.25;8.25;;;;;20.54;40.49;102439.47;5037400;28;45388;-43
2022/11/26 06:21:20;;;;;;;;;10.25;8.25;;;;;20.53;40.72;102452.69;5037150;28;45363;-44
2022/11/26 06:23:46;;;;;;;;;8.50;8.50;;;;;20.52;40.71;102454.44;5037640;28;45543;-44
2022/11/26 06:26:12;;;;;;;;;9.00;8.00;;;;;20.51;40.41;102452.72;5019841;28;45352;-45
2022/11/26 06:28:38;;;;;;;;;9.75;8.25;;;;;20.50;41.19;102444.88;5037548;28;45731;-46
2022/11/26 06:31:04;;;;;;;;;7.75;7.75;;;;;20.49;40.54;102436.13;5037416;28;45387;-44
2022/11/26 06:33:29;;;;;;;;;9.75;9.00;;;;;20.47;40.75;102415.97;5037526;28;45323;-45
2022/11/26 06:35:59;;;;;;;;;9.00;9.00;;;;;20.45;40.73;102418.66;5037326;28;45350;-44
2022/11/26 06:38:25;;;;;;;;;11.75;9.00;;;;;20.43;40.74;102423.13;5037408;28;46345;-45
2022/11/26 06:41:02;;;;;;;;;11.25;9.50;;;;;20.43;41.07;102435.44;5037114;28;45371;-44
2022/11/26 06:43:28;;;;;;;;;13.00;8.25;;;;;20.41;40.96;102439.88;5037432;28;45396;-43
2022/11/26 06:45:54;;;;;;;;;9.00;9.00;;;;;20.41;40.83;102437.25;5037535;28;45588;-45
2022/11/26 06:48:23;;;;;;;;;10.25;8.50;;;;;20.31;40.61;102426.97;5037287;28;46450;-45
2022/11/26 06:50:49;;;;;;;;;10.00;8.75;;;;;20.41;41.05;102446.00;5037099;28;45857;-44
2022/11/26 06:53:14;;;;;;;;;7.50;6.25;;;;;20.39;40.66;102451.31;5037691;28;45316;-44
2022/11/26 06:55:39;;;;;;;;;6.00;4.75;;;;;20.39;40.85;102466.25;5037441;28;45562;-45
2022/11/26 06:58:05;;;;;;;;;9.25;9.25;;;;;20.37;40.99;102468.06;5036539;28;45289;-44
2022/11/26 07:00:30;;;;;;;;;9.50;8.50;;;;;20.29;41.01;102465.66;5036968;28;45367;-43
2022/11/26 07:02:55;;;;;;;;;10.25;7.75;;;;;20.30;40.94;102458.59;5036718;28;45307;-46
2022/11/26 07:05:21;;;;;;;;;8.00;8.00;;;;;20.27;40.78;102450.81;5036693;28;53248;-45
2022/11/26 07:07:46;;;;;;;;;9.00;7.00;;;;;20.27;40.70;102446.41;5036828;28;51955;-41
2022/11/26 07:10:11;;;;;;;;;10.00;8.00;;;;;20.34;40.87;102452.34;5036437;28;53582;-43
2022/11/26 07:12:37;;;;;;;;;11.00;8.50;;;;;20.33;41.08;102450.63;5037037;28;45269;-46
2022/11/26 07:15:02;;;;;;;;;9.75;8.25;;;;;20.31;41.26;102453.31;5036965;28;45273;-44
2022/11/26 07:17:28;;;;;;;;;11.00;7.25;;;;;20.32;41.15;102449.78;5036604;28;46391;-45
2022/11/26 07:19:53;;;;;;;;;10.50;10.00;;;;;20.34;40.79;102463.72;5036536;28;45225;-48
2022/11/26 07:22:18;;;;;;;;;8.00;8.00;;;;;20.35;40.77;102469.88;5018951;28;45226;-44
2022/11/26 07:24:44;;;;;;;;;8.00;8.00;;;;;20.36;41.23;102476.88;5036795;28;49564;-44
2022/11/26 07:27:09;;;;;;;;;10.25;8.75;;;;;20.38;41.04;102475.06;5018302;28;54734;-44
2022/11/26 07:29:34;;;;;;;;;8.00;7.75;;;;;20.40;40.91;102475.88;5036346;28;49875;-44
2022/11/26 07:31:59;;;;;;;;;13.25;10.00;;;;;20.41;40.69;102477.59;5036360;28;45374;-42
2022/11/26 07:34:25;;;;;;;;;8.00;6.67;;;;;20.41;40.83;102488.13;5036059;28;53828;-44
2022/11/26 07:36:50;;;;;;;;;10.00;8.00;;;;;20.43;40.82;102482.84;5036113;28;45446;-43
2022/11/26 07:39:15;;;;;;;;;8.75;8.25;;;;;20.43;41.10;102482.84;5018819;28;45381;-42
2022/11/26 07:41:41;;;;;;;;;8.00;7.75;;;;;20.43;40.88;102473.16;5018757;28;45339;-44
2022/11/26 07:44:12;;;;;;;;;9.50;8.25;;;;;20.44;41.16;102468.75;5036389;28;45390;-45
2022/11/26 07:46:37;;;;;;;;;10.00;8.25;;;;;20.44;41.03;102464.34;5036564;28;46450;-49
2022/11/26 07:49:02;;;;;;;;;11.50;9.00;;;;;20.43;41.00;102461.75;5036167;28;45284;-45
2022/11/26 07:51:30;;;;;;;;;8.75;8.75;;;;;20.43;40.82;102457.34;5036384;28;45438;-45
2022/11/26 07:53:58;;;;;;;;;11.00;9.50;;;;;20.45;40.71;102459.97;5018476;28;45304;-46
2022/11/26 07:56:24;;;;;;;;;8.50;7.00;;;;;20.41;41.10;102447.78;5036108;28;46407;-45
2022/11/26 07:58:50;;;;;;;;;6.00;6.00;;;;;20.45;40.65;102450.28;5017954;28;45824;-46
2022/11/26 08:01:18;;;;;;;;;9.00;7.00;;;;;20.47;40.84;102451.09;5036572;28;45463;-48
2022/11/26 08:03:48;;;;;;;;;9.25;8.25;;;;;20.31;41.16;102416.44;5036751;28;45391;-45
2022/11/26 08:06:16;;;;;;;;;8.75;7.50;;;;;20.53;40.57;102447.41;5018537;28;45321;-45
2022/11/26 08:08:41;;;;;;;;;8.75;8.25;;;;;20.54;41.11;102442.09;5036124;28;45792;-45
2022/11/26 08:11:24;;;;;;;;;10.00;8.00;;;;;20.60;40.90;102462.13;5035994;28;45355;-49
2022/11/26 08:13:58;;;;;;;;;10.00;8.25;;;;;20.55;40.76;102456.16;5018154;28;45526;-48
2022/11/26 08:16:23;;;;;;;;;9.00;8.50;;;;;20.67;40.83;102479.47;5035774;28;46570;-50
2022/11/26 08:18:56;;;;;;;;;8.00;8.00;;;;;20.70;40.95;102470.63;5035867;28;45342;-47
2022/11/26 08:21:21;;;;;;;;;11.00;8.00;;;;;20.74;41.07;102477.53;5036225;28;45437;-45
2022/11/26 08:23:47;;;;;;;;;8.00;8.00;;;;;20.59;41.00;102457.75;5036595;28;45844;-41
2022/11/26 08:26:14;;;;;;;;;7.00;7.00;;;;;20.83;40.59;102476.41;5036116;28;45296;-44
2022/11/26 08:28:43;;;;;;;;;9.25;9.00;;;;;20.70;40.61;102455.66;5035674;28;45723;-46
2022/11/26 08:31:11;;;;;;;;;7.50;6.75;;;;;20.70;40.55;102454.81;5035738;28;45277;-47
2022/11/26 08:33:37;;;;;;;;;7.75;7.75;;;;;20.92;40.67;102491.94;5036076;28;45351;-48
2022/11/26 09:16:04;;;;;;;;;8.00;7.75;;;;;21.14;40.19;102491.25;5059338;28;45662;-48
2022/11/26 09:18:29;;;;;;;;;7.50;7.50;;;;;21.14;40.29;102501.81;5063035;28;45478;-43
2022/11/26 09:20:55;;;;;;;;;6.75;3.25;;;;;21.14;39.81;102501.81;5050042;28;45227;-45
2022/11/26 09:23:20;;;;;;;;;8.00;7.50;;;;;21.14;39.98;102500.06;5051192;28;45268;-38
2022/11/26 09:25:48;;;;;;;;;9.25;7.00;;;;;21.09;39.80;102490.56;5050163;28;46291;-39
2022/11/26 09:28:14;;;;;;;;;9.50;8.00;;;;;21.10;39.97;102476.47;5045174;28;45972;-43
2022/11/26 09:30:39;;;;;;;;;10.50;8.25;;;;;21.14;39.83;102481.59;5043127;28;45402;-37
2022/11/26 09:33:05;;;;;;;;;9.25;7.75;;;;;21.08;40.21;102471.22;5042205;28;45590;-40
2022/11/26 09:35:30;;;;;;;;;8.25;8.00;;;;;21.14;39.68;102475.44;5042679;28;46177;-39
2022/11/26 09:37:56;;;;;;;;;8.50;8.00;;;;;21.14;39.84;102480.72;5043248;28;45348;-43
2022/11/26 09:40:35;;;;;;;;;11.00;9.00;;;;;21.13;39.73;102495.69;5043031;28;45419;-42
2022/11/26 09:43:06;;;;;;;;;8.00;6.25;;;;;21.07;39.77;102489.75;5043078;28;45576;-38
2022/11/26 09:45:37;;;;;;;;;9.00;9.00;;;;;21.13;39.70;102484.25;5042700;28;45591;-39
2022/11/26 09:48:04;;;;;;;;;7.25;6.75;;;;;21.13;39.75;102485.13;5042696;28;45367;-40
2022/11/26 09:50:34;;;;;;;;;6.00;6.00;;;;;21.13;39.72;102486.91;5043871;28;45438;-42
2022/11/26 09:53:09;;;;;;;;;8.00;7.00;;;;;21.12;39.86;102479.88;5055542;28;45570;-42
2022/11/26 09:55:37;;;;;;;;;7.00;6.75;;;;;21.05;39.55;102471.34;5052894;28;45428;-51
2022/11/26 09:58:11;;;;;;;;;9.00;7.00;;;;;21.10;39.53;102464.13;5052249;28;45161;-46
2022/11/26 10:00:40;;;;;;;;;9.50;7.25;;;;;21.04;39.90;102458.19;5056983;28;45224;-41
2022/11/26 10:03:17;;;;;;;;;7.50;6.50;;;;;21.09;39.63;102469.47;5057866;28;44870;-46
2022/11/26 10:06:05;;;;;;;;;7.00;6.75;;;;;21.03;39.44;102467.00;5056590;28;45409;-43
2022/11/26 10:08:55;;;;;;;;;10.00;9.00;;;;;21.08;40.14;102478.28;5050902;28;45269;-38
2022/11/26 10:11:46;;;;;;;;;7.75;7.75;;;;;21.07;39.54;102479.19;5057568;28;45300;-42
2022/11/26 10:14:14;;;;;;;;;8.00;8.00;;;;;20.99;39.73;102460.97;5055383;28;45170;-41
2022/11/26 10:17:03;;;;;;;;;8.25;7.50;;;;;21.05;39.49;102473.09;5037664;28;47286;-44
2022/11/26 10:19:37;;;;;;;;;11.50;9.25;;;;;21.05;39.69;102481.00;5041470;28;45337;-40
2022/11/26 10:22:06;;;;;;;;;4.75;4.50;;;;;20.94;39.87;102460.28;5050755;28;45359;-42
2022/11/26 10:24:40;;;;;;;;;7.25;7.25;;;;;21.01;39.79;102470.56;5041288;28;45605;-42
2022/11/26 10:27:19;;;;;;;;;8.75;7.25;;;;;21.01;39.70;102477.63;5040874;28;46071;-37
2022/11/26 10:29:57;;;;;;;;;8.25;8.25;;;;;20.99;39.60;102472.41;5042642;28;46004;-41
2022/11/26 10:32:25;;;;;;;;;11.25;8.00;;;;;20.92;39.64;102448.91;5047495;28;45322;-37
2022/11/26 10:34:56;;;;;;;;;7.75;6.75;;;;;20.96;39.83;102443.50;5043882;28;45236;-41
2022/11/26 10:37:24;;;;;;;;;8.00;8.00;;;;;20.95;39.31;102446.16;5041539;28;46578;-49
2022/11/26 10:40:15;;;;;;;;;7.25;6.75;;;;;20.95;39.57;102448.78;5044038;28;45792;-41
2022/11/26 10:42:43;;;;;;;;;7.25;7.25;;;;;20.94;39.74;102437.41;5054564;28;45494;-42
2022/11/26 10:45:21;;;;;;;;;9.25;7.00;;;;;20.93;39.24;102440.94;5056662;28;44746;-46
2022/11/26 10:47:47;;;;;;;;;7.00;7.00;;;;;20.92;39.58;102452.41;5044724;28;46661;-39
2022/11/26 10:50:18;;;;;;;;;9.75;8.50;;;;;20.92;39.44;102454.19;5040269;28;45810;-39
2022/11/26 10:52:44;;;;;;;;;9.00;7.50;;;;;20.84;39.52;102435.97;5038471;28;45471;-37
2022/11/26 10:55:25;;;;;;;;;8.00;8.00;;;;;20.91;39.86;102445.41;5025809;28;45340;-40
2022/11/26 10:57:54;;;;;;;;;6.75;6.75;;;;;20.82;40.06;102437.78;5038205;28;45418;-39
2022/11/26 11:00:31;;;;;;;;;10.00;7.50;;;;;20.80;39.65;102435.22;5037193;28;45799;-38
2022/11/26 11:02:58;;;;;;;;;8.00;8.00;;;;;20.80;39.61;102444.88;5037427;28;45340;-40
2022/11/26 11:05:23;;;;;;;;;11.00;9.00;;;;;20.85;39.71;102457.00;5038567;28;45315;-39
2022/11/26 11:07:52;;;;;;;;;6.00;6.00;;;;;20.78;39.68;102441.44;5043098;28;46503;-40
2022/11/26 11:10:20;;;;;;;;;9.00;8.00;;;;;20.77;39.82;102445.84;5044622;28;45774;-38
2022/11/26 11:12:59;;;;;;;;;11.00;8.50;;;;;20.82;39.70;102449.19;5037621;28;45350;-44
2022/11/26 11:15:27;;;;;;;;;5.00;4.50;;;;;20.81;39.88;102455.38;5042478;28;45419;-40
2022/11/26 11:18:00;;;;;;;;;9.75;8.50;;;;;20.74;39.73;102434.50;5042793;28;45471;-40
2022/11/26 11:20:27;;;;;;;;;9.50;8.25;;;;;20.80;39.81;102442.22;5037822;28;45960;-39
2022/11/26 11:23:00;;;;;;;;;10.50;7.75;;;;;20.79;39.92;102437.88;5037645;28;45452;-40
2022/11/26 11:25:30;;;;;;;;;7.00;7.00;;;;;20.79;39.82;102443.13;5037914;28;45655;-41
2022/11/26 11:28:13;;;;;;;;;9.25;5.50;;;;;20.76;40.03;102433.56;5037941;28;48726;-40
2022/11/26 11:30:40;;;;;;;;;9.25;8.50;;;;;20.76;39.97;102425.66;5053928;28;45863;-38
2022/11/26 11:33:25;;;;;;;;;10.00;8.75;;;;;20.75;39.87;102426.56;5057988;28;45267;-40
2022/11/26 11:36:01;;;;;;;;;12.00;10.75;;;;;20.74;39.88;102416.06;5066483;28;45300;-41
2022/11/26 11:38:30;;;;;;;;;10.25;7.25;;;;;20.74;40.05;102418.69;5043522;28;47194;-42
2022/11/26 11:40:56;;;;;;;;;9.00;9.00;;;;;20.71;40.14;102424.94;5039172;28;45349;-39
2022/11/26 11:43:23;;;;;;;;;8.00;8.00;;;;;20.70;40.36;102434.59;5039449;28;45475;-38
2022/11/26 11:45:54;;;;;;;;;6.00;6.00;;;;;20.70;40.17;102434.59;5045361;28;45624;-41
2022/11/26 11:48:42;;;;;;;;;10.50;7.50;;;;;20.67;39.82;102434.66;5041999;28;46656;-38
2022/11/26 11:51:25;;;;;;;;;7.00;7.00;;;;;20.67;40.43;102442.56;5037481;28;45912;-38
2022/11/26 11:54:02;;;;;;;;;9.00;8.50;;;;;20.61;39.92;102434.88;5037141;28;45354;-41
2022/11/26 11:56:30;;;;;;;;;6.75;5.50;;;;;20.61;40.25;102440.13;5037407;28;45433;-41
2022/11/26 11:59:13;;;;;;;;;11.00;8.00;;;;;20.67;40.22;102445.22;5037550;28;45377;-41
2022/11/26 12:02:16;;;;;;;;;8.75;8.75;;;;;20.66;39.87;102440.88;5037604;28;45802;-41
2022/11/26 12:05:08;;;;;;;;;7.75;7.75;;;;;20.65;40.10;102449.69;5057544;28;44754;-43
2022/11/26 12:07:39;;;;;;;;;8.00;7.00;;;;;20.64;40.38;102444.44;5048545;28;45438;-41
2022/11/26 12:10:15;;;;;;;;;10.25;9.00;;;;;20.55;40.34;102435.06;5040718;28;46378;-40
2022/11/26 12:12:48;;;;;;;;;8.00;7.25;;;;;20.62;40.13;102452.41;5042280;28;45947;-41
2022/11/26 12:15:28;;;;;;;;;8.25;7.75;;;;;20.61;40.13;102463.84;5044363;28;45324;-38